createdAt,value
2022-08-17T00:01:28.960Z,3.03
2022-08-17T00:04:20.696Z,2.53
2022-08-17T00:07:12.041Z,2.45
2022-08-17T00:10:01.225Z,2.72
2022-08-17T00:12:50.316Z,3.00
2022-08-17T00:15:39.587Z,2.97
2022-08-17T00:18:53.849Z,3.00
2022-08-17T00:22:32.623Z,2.63
2022-08-17T00:24:52.028Z,3.05
2022-08-17T00:27:41.363Z,3.28
2022-08-17T00:30:30.694Z,2.78
2022-08-17T00:33:40.537Z,2.72
2022-08-17T00:36:30.080Z,3.15
2022-08-17T00:39:19.845Z,3.42
2022-08-17T00:42:16.326Z,3.30
2022-08-17T00:45:06.905Z,3.00
2022-08-17T00:47:55.942Z,3.13
2022-08-17T00:50:51.402Z,2.55
2022-08-17T00:53:43.894Z,2.58
2022-08-17T00:56:37.777Z,2.78
2022-08-17T00:59:32.669Z,3.42
2022-08-17T01:02:23.006Z,3.40
2022-08-17T01:05:18.494Z,2.80
2022-08-17T01:08:10.574Z,3.85
2022-08-17T01:11:02.797Z,2.85
2022-08-17T01:13:52.084Z,2.95
2022-08-17T01:16:43.005Z,3.17
2022-08-17T01:19:36.424Z,2.95
2022-08-17T01:22:28.027Z,3.00
2022-08-17T01:25:18.771Z,3.55
2022-08-17T01:28:08.220Z,2.70
2022-08-17T01:30:59.634Z,2.90
2022-08-17T01:33:48.976Z,2.92
2022-08-17T01:36:38.117Z,2.78
2022-08-17T01:39:31.632Z,2.92
2022-08-17T01:42:25.286Z,2.95
2022-08-17T01:45:18.376Z,3.60
2022-08-17T01:48:08.292Z,3.08
2022-08-17T01:50:57.370Z,3.00
2022-08-17T01:53:51.088Z,4.00
2022-08-17T01:56:47.252Z,2.28
2022-08-17T01:59:36.789Z,2.60
2022-08-17T02:02:30.557Z,3.00
2022-08-17T02:05:21.573Z,3.00
2022-08-17T02:08:19.805Z,2.85
2022-08-17T02:11:11.951Z,2.92
2022-08-17T02:14:04.230Z,2.92
2022-08-17T02:16:53.171Z,2.83
2022-08-17T02:19:42.436Z,2.83
2022-08-17T02:22:31.517Z,3.03
2022-08-17T02:25:23.099Z,3.47
2022-08-17T02:28:12.645Z,3.40
2022-08-17T02:31:07.803Z,3.53
2022-08-17T02:34:04.486Z,3.60
2022-08-17T02:36:54.463Z,6.05
2022-08-17T02:39:44.073Z,3.30
2022-08-17T02:42:35.836Z,3.00
2022-08-17T02:45:26.967Z,3.10
2022-08-17T02:48:30.843Z,3.13
2022-08-17T02:51:20.454Z,3.22
2022-08-17T02:54:40.538Z,3.33
2022-08-17T02:57:19.056Z,3.88
2022-08-17T03:00:12.390Z,3.25
2022-08-17T03:03:02.379Z,3.38
2022-08-17T03:05:53.579Z,3.13
2022-08-17T03:08:43.375Z,2.53
2022-08-17T03:11:32.693Z,3.03
2022-08-17T03:14:21.757Z,3.63
2022-08-17T03:17:17.360Z,3.40
2022-08-17T03:20:07.438Z,3.38
2022-08-17T03:23:02.769Z,3.25
2022-08-17T03:25:53.403Z,2.58
2022-08-17T03:28:43.063Z,3.85
2022-08-17T03:31:32.740Z,2.65
2022-08-17T03:34:26.472Z,4.18
2022-08-17T03:37:16.023Z,3.45
2022-08-17T03:40:08.188Z,2.78
2022-08-17T03:42:58.115Z,3.15
2022-08-17T03:46:28.659Z,3.65
2022-08-17T03:49:41.118Z,3.00
2022-08-17T03:52:47.688Z,2.72
2022-08-17T03:55:59.672Z,3.83
2022-08-17T03:58:48.996Z,4.15
2022-08-17T04:01:38.301Z,3.33
2022-08-17T04:04:27.960Z,3.50
2022-08-17T04:07:17.237Z,3.38
2022-08-17T04:10:07.171Z,3.63
2022-08-17T04:12:58.828Z,3.65
2022-08-17T04:15:49.361Z,3.58
2022-08-17T04:18:39.207Z,4.47
2022-08-17T04:21:29.101Z,3.92
2022-08-17T04:24:18.118Z,4.07
2022-08-17T04:27:07.551Z,5.80
2022-08-17T04:29:58.816Z,5.05
2022-08-17T04:33:03.902Z,4.00
2022-08-17T04:35:56.781Z,4.13
2022-08-17T04:38:47.273Z,4.53
2022-08-17T04:41:53.782Z,4.50
2022-08-17T04:44:42.817Z,4.05
2022-08-17T04:47:33.483Z,3.80
2022-08-17T04:50:23.220Z,4.53
2022-08-17T04:53:12.529Z,3.78
2022-08-17T04:56:01.791Z,5.03
2022-08-17T04:58:52.369Z,4.63
2022-08-17T05:01:44.029Z,3.85
2022-08-17T05:04:35.494Z,4.35
2022-08-17T05:07:27.248Z,4.10
2022-08-17T05:10:20.257Z,3.88
2022-08-17T05:13:10.882Z,3.97
2022-08-17T05:16:02.529Z,3.63
2022-08-17T05:18:52.521Z,3.03
2022-08-17T05:21:44.617Z,3.03
2022-08-17T05:24:42.643Z,3.58
2022-08-17T05:27:35.445Z,2.92
2022-08-17T05:30:25.336Z,2.85
2022-08-17T05:33:18.036Z,4.47
2022-08-17T05:36:09.278Z,2.97
2022-08-17T05:39:19.747Z,4.10
2022-08-17T05:42:08.943Z,3.50
2022-08-17T05:45:00.165Z,2.67
2022-08-17T05:47:49.714Z,3.30
2022-08-17T05:50:49.928Z,3.00
2022-08-17T05:53:44.238Z,3.45
2022-08-17T05:56:52.079Z,3.20
2022-08-17T05:59:55.768Z,2.88
2022-08-17T06:02:58.610Z,3.83
2022-08-17T06:06:00.470Z,3.55
2022-08-17T06:08:55.138Z,3.50
2022-08-17T06:11:53.540Z,3.42
2022-08-17T06:14:59.144Z,4.10
2022-08-17T06:17:48.480Z,3.13
2022-08-17T06:20:46.471Z,3.20
2022-08-17T06:23:38.763Z,3.50
2022-08-17T06:26:42.805Z,3.83
2022-08-17T06:29:41.259Z,4.38
2022-08-17T06:32:31.432Z,3.50
2022-08-17T06:35:32.032Z,3.85
2022-08-17T06:38:37.579Z,4.03
2022-08-17T06:41:38.126Z,3.90
2022-08-17T06:44:43.371Z,4.82
2022-08-17T06:47:48.820Z,4.18
2022-08-17T06:50:42.089Z,5.20
2022-08-17T06:53:40.201Z,5.28
2022-08-17T06:56:54.294Z,6.00
2022-08-17T06:59:56.180Z,5.90
2022-08-17T07:02:53.550Z,5.53
2022-08-17T07:05:47.097Z,5.10
2022-08-17T07:08:47.409Z,5.57
2022-08-17T07:11:41.072Z,5.28
2022-08-17T07:14:36.809Z,4.63
2022-08-17T07:17:47.869Z,4.72
2022-08-17T07:20:42.802Z,4.60
2022-08-17T07:23:40.325Z,4.40
2022-08-17T07:26:29.672Z,5.03
2022-08-17T07:29:20.812Z,4.60
2022-08-17T07:32:11.557Z,5.00
2022-08-17T07:35:12.320Z,4.95
2022-08-17T07:38:25.259Z,6.00
2022-08-17T07:41:15.806Z,7.22
2022-08-17T07:44:05.357Z,6.32
2022-08-17T07:47:13.223Z,5.35
2022-08-17T07:50:02.636Z,7.68
2022-08-17T07:52:52.497Z,5.35
2022-08-17T07:55:44.397Z,4.90
2022-08-17T07:58:33.639Z,6.75
2022-08-17T08:01:22.599Z,5.90
2022-08-17T08:04:58.835Z,6.45
2022-08-17T08:07:54.328Z,7.72
2022-08-17T08:10:45.591Z,5.38
2022-08-17T08:13:36.179Z,5.47
2022-08-17T08:16:29.371Z,5.97
2022-08-17T08:19:21.114Z,6.30
2022-08-17T08:22:16.104Z,6.25
2022-08-17T08:25:19.754Z,6.45
2022-08-17T08:28:21.418Z,5.55
2022-08-17T08:31:18.159Z,5.50
2022-08-17T08:35:00.911Z,5.95
2022-08-17T08:37:42.490Z,5.15
2022-08-17T08:40:40.247Z,6.60
2022-08-17T08:43:38.196Z,6.88
2022-08-17T08:46:36.478Z,7.30
2022-08-17T08:50:05.750Z,5.13
2022-08-17T08:53:14.569Z,6.15
2022-08-17T08:56:08.835Z,6.13
2022-08-17T08:59:08.947Z,6.85
2022-08-17T09:02:05.067Z,7.20
2022-08-17T09:05:14.380Z,7.05
2022-08-17T09:08:10.767Z,7.97
2022-08-17T09:11:06.395Z,8.40
2022-08-17T09:14:21.332Z,9.93
2022-08-17T09:17:16.439Z,7.80
2022-08-17T09:20:27.221Z,7.25
2022-08-17T09:23:32.494Z,7.60
2022-08-17T09:26:25.579Z,7.28
2022-08-17T09:29:24.645Z,8.25
2022-08-17T09:32:21.187Z,7.38
2022-08-17T09:35:16.288Z,7.25
2022-08-17T09:38:13.394Z,8.32
2022-08-17T09:41:11.486Z,7.55
2022-08-17T09:44:07.683Z,7.63
2022-08-17T09:47:12.723Z,6.22
2022-08-17T09:50:07.843Z,8.20
2022-08-17T09:52:59.943Z,7.15
2022-08-17T09:56:02.874Z,6.63
2022-08-17T09:59:17.328Z,6.15
2022-08-17T10:02:26.774Z,6.75
2022-08-17T10:05:22.407Z,5.32
2022-08-17T10:08:23.219Z,6.57
2022-08-17T10:11:48.346Z,7.35
2022-08-17T10:14:45.184Z,8.10
2022-08-17T10:17:51.037Z,7.72
2022-08-17T10:20:45.990Z,7.30
2022-08-17T10:24:01.704Z,7.10
2022-08-17T10:26:56.380Z,6.53
2022-08-17T10:29:49.982Z,7.53
2022-08-17T10:32:41.769Z,8.10
2022-08-17T10:35:41.144Z,9.07
2022-08-17T10:38:40.597Z,6.93
2022-08-17T10:41:38.185Z,8.43
2022-08-17T10:44:45.886Z,9.05
2022-08-17T10:48:04.323Z,8.40
2022-08-17T10:51:07.744Z,7.47
2022-08-17T10:54:02.161Z,7.60
2022-08-17T10:56:53.839Z,7.95
2022-08-17T10:59:52.424Z,6.93
2022-08-17T11:02:49.887Z,7.68
2022-08-17T11:05:54.121Z,7.18
2022-08-17T11:09:16.759Z,6.85
2022-08-17T11:12:19.882Z,6.60
2022-08-17T11:15:23.794Z,7.53
2022-08-17T11:18:34.062Z,6.50
2022-08-17T11:21:52.935Z,7.07
2022-08-17T11:24:48.203Z,6.47
2022-08-17T11:27:38.393Z,6.90
2022-08-17T11:30:52.534Z,6.60
2022-08-17T11:33:56.867Z,6.35
2022-08-17T11:37:26.570Z,5.72
2022-08-17T11:40:46.573Z,6.18
2022-08-17T11:44:05.710Z,5.38
2022-08-17T11:47:27.023Z,5.75
2022-08-17T11:50:55.201Z,5.28
2022-08-17T11:54:31.274Z,5.20
2022-08-17T11:58:01.184Z,5.28
2022-08-17T12:01:01.274Z,5.68
2022-08-17T12:03:59.014Z,4.97
2022-08-17T12:06:51.727Z,5.22
2022-08-17T12:09:45.648Z,4.88
2022-08-17T12:12:35.924Z,4.50
2022-08-17T12:15:31.797Z,5.03
2022-08-17T12:18:24.793Z,4.30
2022-08-17T12:21:37.122Z,4.18
2022-08-17T12:24:37.821Z,3.95
2022-08-17T12:27:47.765Z,4.68
2022-08-17T12:30:41.004Z,4.65
2022-08-17T12:33:32.403Z,4.45
2022-08-17T12:36:26.215Z,4.88
2022-08-17T12:39:21.599Z,4.05
2022-08-17T12:42:25.197Z,4.63
2022-08-17T12:45:25.032Z,5.60
2022-08-17T12:48:22.980Z,4.35
2022-08-17T12:51:14.663Z,3.95
2022-08-17T12:54:03.840Z,4.55
2022-08-17T12:56:53.244Z,4.15
2022-08-17T12:59:45.249Z,3.95
2022-08-17T13:02:47.591Z,4.25
2022-08-17T13:05:39.658Z,4.72
2022-08-17T13:08:35.779Z,3.97
2022-08-17T13:11:26.720Z,4.03
2022-08-17T13:14:18.718Z,4.32
2022-08-17T13:17:13.351Z,4.03
2022-08-17T13:20:05.057Z,3.88
2022-08-17T13:22:59.589Z,4.25
2022-08-17T13:25:56.963Z,3.72
2022-08-17T13:28:50.040Z,3.83
2022-08-17T13:31:52.128Z,4.10
2022-08-17T13:35:12.115Z,3.53
2022-08-17T13:38:02.773Z,3.95
2022-08-17T13:40:54.549Z,3.30
2022-08-17T13:43:46.657Z,3.13
2022-08-17T13:46:36.545Z,3.15
2022-08-17T13:49:26.560Z,3.38
2022-08-17T15:23:47.139Z,3.78
2022-08-17T15:26:38.371Z,4.03
2022-08-17T15:29:27.517Z,3.13
2022-08-17T15:32:28.058Z,4.20
2022-08-17T15:35:17.257Z,4.18
2022-08-17T15:38:11.999Z,3.95
2022-08-17T15:41:03.799Z,4.85
2022-08-17T15:43:52.896Z,3.78
2022-08-17T15:46:42.050Z,4.38
2022-08-17T15:49:31.152Z,4.50
2022-08-17T15:52:24.049Z,4.60
2022-08-17T15:55:14.606Z,3.63
2022-08-17T15:58:05.189Z,4.30
2022-08-17T16:01:14.383Z,4.38
2022-08-17T16:04:12.185Z,4.18
2022-08-17T16:07:13.268Z,5.53
2022-08-17T16:10:02.525Z,6.25
2022-08-17T16:12:53.623Z,5.70
2022-08-17T16:15:44.494Z,4.72
2022-08-17T16:18:33.894Z,5.20
2022-08-17T16:21:31.153Z,5.90
2022-08-17T16:24:35.400Z,5.68
2022-08-17T16:27:24.811Z,5.15
2022-08-17T16:30:17.713Z,5.60
2022-08-17T16:33:08.036Z,6.72
2022-08-17T16:35:57.111Z,7.57
2022-08-17T16:38:46.851Z,8.55
2022-08-17T16:41:45.466Z,6.03
2022-08-17T16:44:34.488Z,3.95
2022-08-17T16:47:23.714Z,4.20
2022-08-17T16:50:16.077Z,3.97
2022-08-17T16:53:08.066Z,4.22
2022-08-17T16:55:57.376Z,4.75
2022-08-17T16:58:46.858Z,5.22
2022-08-17T17:01:42.055Z,4.55
2022-08-17T17:04:35.188Z,5.40
2022-08-17T17:07:49.937Z,4.68
2022-08-17T17:10:43.626Z,4.22
2022-08-17T17:13:38.515Z,6.10
2022-08-17T17:16:36.544Z,4.28
2022-08-17T17:19:34.985Z,5.22
2022-08-17T17:22:31.745Z,5.10
2022-08-17T17:25:28.364Z,4.70
2022-08-17T17:28:25.215Z,4.38
2022-08-17T17:31:17.187Z,5.25
2022-08-17T17:34:11.633Z,5.22
2022-08-17T17:37:06.155Z,4.20
2022-08-17T17:39:59.342Z,5.13
2022-08-17T17:42:53.386Z,5.70
2022-08-17T17:45:47.322Z,4.28
2022-08-17T17:48:37.489Z,4.43
2022-08-17T17:52:06.887Z,3.88
2022-08-17T17:55:00.238Z,3.65
2022-08-17T17:58:04.888Z,3.75
2022-08-17T18:00:59.953Z,3.65
2022-08-17T18:04:01.604Z,4.05
2022-08-17T18:07:17.155Z,3.70
2022-08-17T18:10:29.634Z,3.17
2022-08-17T18:13:29.910Z,3.25
2022-08-17T18:16:19.291Z,3.85
2022-08-17T18:19:12.610Z,3.75
2022-08-17T18:22:14.271Z,3.63
2022-08-17T18:25:04.006Z,3.67
2022-08-17T18:27:54.604Z,4.13
2022-08-17T18:30:45.148Z,3.47
2022-08-17T18:33:34.415Z,3.90
2022-08-17T18:36:31.495Z,3.10
2022-08-17T18:39:23.188Z,4.05
2022-08-17T18:42:27.234Z,3.03
2022-08-17T18:45:34.952Z,2.85
2022-08-17T18:48:32.837Z,3.50
2022-08-17T18:51:40.584Z,3.67
2022-08-17T18:54:32.605Z,3.33
2022-08-17T18:57:30.793Z,3.58
2022-08-17T19:00:31.849Z,3.00
2022-08-17T19:03:27.587Z,3.22
2022-08-17T19:06:27.223Z,3.17
2022-08-17T19:09:34.230Z,3.40
2022-08-17T19:12:29.357Z,3.30
2022-08-17T19:15:26.459Z,3.90
2022-08-17T19:18:19.941Z,2.72
2022-08-17T19:21:15.691Z,3.30
2022-08-17T19:24:11.332Z,3.25
2022-08-17T19:27:18.778Z,3.42
2022-08-17T19:30:14.817Z,3.60
2022-08-17T19:33:04.620Z,3.33
2022-08-17T19:36:03.128Z,3.58
2022-08-17T19:39:01.229Z,3.80
2022-08-17T19:41:58.352Z,3.50
2022-08-17T19:44:56.659Z,3.45
2022-08-17T19:47:55.580Z,3.40
2022-08-17T19:50:52.219Z,3.35
2022-08-17T19:54:07.129Z,3.00
2022-08-17T19:57:04.402Z,2.80
2022-08-17T20:00:01.199Z,2.92
2022-08-17T20:02:58.075Z,2.90
2022-08-17T20:06:11.384Z,3.08
2022-08-17T20:09:05.432Z,3.30
2022-08-17T20:12:12.327Z,3.05
2022-08-17T20:15:06.468Z,3.67
2022-08-17T20:17:59.012Z,4.40
2022-08-17T20:20:51.143Z,3.40
2022-08-17T20:23:54.727Z,3.92
2022-08-17T20:26:58.129Z,3.72
2022-08-17T20:30:07.760Z,3.75
2022-08-17T20:32:58.806Z,3.88
2022-08-17T20:36:13.859Z,3.45
2022-08-17T20:39:03.079Z,3.75
2022-08-17T20:42:07.307Z,4.13
2022-08-17T20:44:58.940Z,3.50
2022-08-17T20:48:18.672Z,3.50
2022-08-17T20:51:15.152Z,3.67
2022-08-17T20:54:31.392Z,4.13
2022-08-17T20:57:45.873Z,4.40
2022-08-17T21:00:47.123Z,3.72
2022-08-17T21:03:51.809Z,3.92
2022-08-17T21:07:17.662Z,3.80
2022-08-17T21:10:16.193Z,3.53
2022-08-17T21:13:40.706Z,4.30
2022-08-17T21:17:02.618Z,3.45
2022-08-17T21:20:17.636Z,3.35
2022-08-17T21:23:31.571Z,4.13
2022-08-17T21:26:31.755Z,3.40
2022-08-17T21:29:31.516Z,4.22
2022-08-17T21:32:31.219Z,4.00
2022-08-17T21:35:28.499Z,3.80
2022-08-17T21:38:19.680Z,3.42
2022-08-17T21:41:19.166Z,3.80
2022-08-17T21:44:21.817Z,3.70
2022-08-17T21:47:16.909Z,3.85
2022-08-17T21:50:17.939Z,4.75
2022-08-17T21:53:09.748Z,3.97
2022-08-17T21:55:58.741Z,4.20
2022-08-17T21:58:55.364Z,4.47
2022-08-17T22:01:44.822Z,4.35
2022-08-17T22:04:41.545Z,4.22
2022-08-17T22:07:39.871Z,3.70
2022-08-17T22:10:33.544Z,3.95
2022-08-17T22:13:24.822Z,4.32
2022-08-17T22:16:28.840Z,3.78
2022-08-17T22:19:21.350Z,4.47
2022-08-17T22:22:21.490Z,4.85
2022-08-17T22:25:23.064Z,4.10
2022-08-17T22:28:14.775Z,4.25
2022-08-17T22:31:05.831Z,4.13
2022-08-17T22:34:11.473Z,4.25
2022-08-17T22:37:27.234Z,4.63
2022-08-17T22:40:28.461Z,4.45
2022-08-17T22:43:25.934Z,4.55
2022-08-17T22:46:16.658Z,4.43
2022-08-17T22:49:07.952Z,4.72
2022-08-17T22:52:06.540Z,4.07
2022-08-17T22:55:21.145Z,4.13
2022-08-17T22:58:30.096Z,4.03
2022-08-17T23:01:29.803Z,4.70
2022-08-17T23:04:34.388Z,3.78
2022-08-17T23:07:23.967Z,3.92
2022-08-17T23:10:14.363Z,3.88
2022-08-17T23:13:03.474Z,3.67
2022-08-17T23:15:53.418Z,3.90
2022-08-17T23:18:44.698Z,4.13
2022-08-17T23:21:33.781Z,3.90
2022-08-17T23:24:29.587Z,3.92
2022-08-17T23:27:19.943Z,4.10
2022-08-17T23:30:10.885Z,4.25
2022-08-17T23:33:02.357Z,4.00
2022-08-17T23:35:53.784Z,4.22
2022-08-17T23:38:44.536Z,4.07
2022-08-17T23:41:38.152Z,4.32
2022-08-17T23:44:27.743Z,3.78
2022-08-17T23:47:17.252Z,4.70
2022-08-17T23:50:06.579Z,4.00
2022-08-17T23:52:57.635Z,4.95
2022-08-17T23:55:47.873Z,5.25
2022-08-17T23:58:58.239Z,5.45
